sensor_id;sensor_type;location;lat;lon;timestamp;P1;durP1;ratioP1;P2;durP2;ratioP2
4585;SDS011;2305;50.118;8.952;2022-08-19T00:00:08;20.60;;;15.00;;
4585;SDS011;2305;50.118;8.952;2022-08-19T00:02:40;21.83;;;13.23;;
4585;SDS011;2305;50.118;8.952;2022-08-19T00:05:16;17.80;;;13.90;;
4585;SDS011;2305;50.118;8.952;2022-08-19T00:07:45;18.03;;;13.50;;
4585;SDS011;2305;50.118;8.952;2022-08-19T00:10:15;16.90;;;13.57;;
4585;SDS011;2305;50.118;8.952;2022-08-19T00:12:44;17.70;;;13.90;;
4585;SDS011;2305;50.118;8.952;2022-08-19T00:15:14;15.60;;;13.60;;
4585;SDS011;2305;50.118;8.952;2022-08-19T00:17:46;19.40;;;14.07;;
4585;SDS011;2305;50.118;8.952;2022-08-19T00:20:16;18.10;;;13.63;;
4585;SDS011;2305;50.118;8.952;2022-08-19T00:22:46;17.30;;;12.70;;
4585;SDS011;2305;50.118;8.952;2022-08-19T00:25:16;19.13;;;14.20;;
4585;SDS011;2305;50.118;8.952;2022-08-19T00:27:55;17.37;;;13.50;;
4585;SDS011;2305;50.118;8.952;2022-08-19T00:30:24;15.60;;;13.47;;
4585;SDS011;2305;50.118;8.952;2022-08-19T00:32:52;17.13;;;13.20;;
4585;SDS011;2305;50.118;8.952;2022-08-19T00:35:23;17.67;;;13.93;;
4585;SDS011;2305;50.118;8.952;2022-08-19T00:37:53;19.10;;;14.63;;
4585;SDS011;2305;50.118;8.952;2022-08-19T00:40:24;17.80;;;14.10;;
4585;SDS011;2305;50.118;8.952;2022-08-19T00:42:52;17.20;;;13.27;;
4585;SDS011;2305;50.118;8.952;2022-08-19T00:45:22;19.90;;;13.93;;
4585;SDS011;2305;50.118;8.952;2022-08-19T00:47:53;16.13;;;13.17;;
4585;SDS011;2305;50.118;8.952;2022-08-19T00:50:22;19.60;;;14.70;;
4585;SDS011;2305;50.118;8.952;2022-08-19T00:52:50;17.53;;;13.03;;
4585;SDS011;2305;50.118;8.952;2022-08-19T00:55:20;20.50;;;15.57;;
4585;SDS011;2305;50.118;8.952;2022-08-19T00:57:53;17.63;;;12.90;;
4585;SDS011;2305;50.118;8.952;2022-08-19T01:00:24;17.83;;;14.97;;
4585;SDS011;2305;50.118;8.952;2022-08-19T01:02:56;17.73;;;13.23;;
4585;SDS011;2305;50.118;8.952;2022-08-19T01:05:24;18.10;;;13.17;;
4585;SDS011;2305;50.118;8.952;2022-08-19T01:07:55;19.97;;;13.83;;
4585;SDS011;2305;50.118;8.952;2022-08-19T01:10:25;20.20;;;14.30;;
4585;SDS011;2305;50.118;8.952;2022-08-19T01:13:03;21.37;;;14.27;;
4585;SDS011;2305;50.118;8.952;2022-08-19T01:15:32;23.90;;;14.30;;
4585;SDS011;2305;50.118;8.952;2022-08-19T01:18:04;19.83;;;14.00;;
4585;SDS011;2305;50.118;8.952;2022-08-19T01:20:35;18.57;;;14.03;;
4585;SDS011;2305;50.118;8.952;2022-08-19T01:23:05;17.60;;;13.40;;
4585;SDS011;2305;50.118;8.952;2022-08-19T01:25:34;17.43;;;13.60;;
4585;SDS011;2305;50.118;8.952;2022-08-19T01:28:07;17.47;;;13.87;;
4585;SDS011;2305;50.118;8.952;2022-08-19T01:30:37;18.27;;;14.10;;
4585;SDS011;2305;50.118;8.952;2022-08-19T01:33:09;16.77;;;13.50;;
4585;SDS011;2305;50.118;8.952;2022-08-19T01:35:40;17.30;;;13.73;;
4585;SDS011;2305;50.118;8.952;2022-08-19T01:38:18;17.13;;;13.70;;
4585;SDS011;2305;50.118;8.952;2022-08-19T01:40:48;19.53;;;13.80;;
4585;SDS011;2305;50.118;8.952;2022-08-19T01:43:16;18.00;;;12.80;;
4585;SDS011;2305;50.118;8.952;2022-08-19T01:45:45;20.83;;;14.43;;
4585;SDS011;2305;50.118;8.952;2022-08-19T01:48:14;16.27;;;12.80;;
4585;SDS011;2305;50.118;8.952;2022-08-19T01:50:42;18.60;;;13.93;;
4585;SDS011;2305;50.118;8.952;2022-08-19T01:53:11;21.07;;;13.27;;
4585;SDS011;2305;50.118;8.952;2022-08-19T01:55:41;16.20;;;12.07;;
4585;SDS011;2305;50.118;8.952;2022-08-19T01:58:12;18.10;;;12.53;;
4585;SDS011;2305;50.118;8.952;2022-08-19T02:00:43;16.90;;;13.67;;
4585;SDS011;2305;50.118;8.952;2022-08-19T02:03:12;16.43;;;11.73;;
4585;SDS011;2305;50.118;8.952;2022-08-19T02:05:41;18.53;;;12.47;;
4585;SDS011;2305;50.118;8.952;2022-08-19T02:08:09;16.77;;;12.77;;
4585;SDS011;2305;50.118;8.952;2022-08-19T02:10:39;19.73;;;12.20;;
4585;SDS011;2305;50.118;8.952;2022-08-19T02:13:09;18.03;;;12.23;;
4585;SDS011;2305;50.118;8.952;2022-08-19T02:15:37;14.40;;;11.60;;
4585;SDS011;2305;50.118;8.952;2022-08-19T02:18:05;16.50;;;13.83;;
4585;SDS011;2305;50.118;8.952;2022-08-19T02:20:34;14.60;;;12.17;;
4585;SDS011;2305;50.118;8.952;2022-08-19T02:23:03;17.20;;;12.70;;
4585;SDS011;2305;50.118;8.952;2022-08-19T02:25:41;22.20;;;13.10;;
4585;SDS011;2305;50.118;8.952;2022-08-19T02:28:10;17.17;;;12.30;;
4585;SDS011;2305;50.118;8.952;2022-08-19T02:30:44;16.87;;;13.00;;
4585;SDS011;2305;50.118;8.952;2022-08-19T02:33:13;14.60;;;11.03;;
4585;SDS011;2305;50.118;8.952;2022-08-19T02:35:41;21.43;;;13.17;;
4585;SDS011;2305;50.118;8.952;2022-08-19T02:38:10;16.53;;;11.43;;
4585;SDS011;2305;50.118;8.952;2022-08-19T02:40:55;19.70;;;11.67;;
4585;SDS011;2305;50.118;8.952;2022-08-19T02:43:25;13.30;;;11.00;;
4585;SDS011;2305;50.118;8.952;2022-08-19T02:45:59;14.33;;;10.70;;
4585;SDS011;2305;50.118;8.952;2022-08-19T02:48:27;14.97;;;12.00;;
4585;SDS011;2305;50.118;8.952;2022-08-19T02:50:55;14.63;;;11.00;;
4585;SDS011;2305;50.118;8.952;2022-08-19T02:53:26;13.80;;;11.63;;
4585;SDS011;2305;50.118;8.952;2022-08-19T02:55:56;14.37;;;11.40;;
4585;SDS011;2305;50.118;8.952;2022-08-19T02:58:24;23.40;;;11.40;;
4585;SDS011;2305;50.118;8.952;2022-08-19T03:00:55;16.63;;;11.50;;
4585;SDS011;2305;50.118;8.952;2022-08-19T03:03:26;13.60;;;11.03;;
4585;SDS011;2305;50.118;8.952;2022-08-19T03:06:06;13.60;;;10.30;;
4585;SDS011;2305;50.118;8.952;2022-08-19T03:08:36;14.00;;;12.10;;
4585;SDS011;2305;50.118;8.952;2022-08-19T03:11:10;14.90;;;11.93;;
4585;SDS011;2305;50.118;8.952;2022-08-19T03:13:41;16.30;;;11.90;;
4585;SDS011;2305;50.118;8.952;2022-08-19T03:16:09;12.70;;;10.53;;
4585;SDS011;2305;50.118;8.952;2022-08-19T03:18:38;15.57;;;11.10;;
4585;SDS011;2305;50.118;8.952;2022-08-19T03:21:06;15.90;;;11.73;;
4585;SDS011;2305;50.118;8.952;2022-08-19T03:23:37;15.03;;;10.67;;
4585;SDS011;2305;50.118;8.952;2022-08-19T03:26:07;18.77;;;12.40;;
4585;SDS011;2305;50.118;8.952;2022-08-19T03:28:45;18.30;;;11.47;;
4585;SDS011;2305;50.118;8.952;2022-08-19T03:31:18;16.10;;;12.13;;
4585;SDS011;2305;50.118;8.952;2022-08-19T03:34:09;13.20;;;11.10;;
4585;SDS011;2305;50.118;8.952;2022-08-19T03:36:39;15.70;;;12.40;;
4585;SDS011;2305;50.118;8.952;2022-08-19T03:39:07;15.23;;;11.43;;
4585;SDS011;2305;50.118;8.952;2022-08-19T03:41:38;15.90;;;11.67;;
4585;SDS011;2305;50.118;8.952;2022-08-19T03:44:12;13.03;;;10.50;;
4585;SDS011;2305;50.118;8.952;2022-08-19T03:46:47;16.77;;;11.27;;
4585;SDS011;2305;50.118;8.952;2022-08-19T03:49:16;18.10;;;11.33;;
4585;SDS011;2305;50.118;8.952;2022-08-19T03:51:46;14.07;;;11.17;;
4585;SDS011;2305;50.118;8.952;2022-08-19T03:54:15;12.90;;;11.47;;
4585;SDS011;2305;50.118;8.952;2022-08-19T03:56:47;18.17;;;12.57;;
4585;SDS011;2305;50.118;8.952;2022-08-19T03:59:17;15.23;;;10.90;;
4585;SDS011;2305;50.118;8.952;2022-08-19T04:01:46;18.47;;;12.17;;
4585;SDS011;2305;50.118;8.952;2022-08-19T04:04:14;27.53;;;12.57;;
4585;SDS011;2305;50.118;8.952;2022-08-19T04:06:45;22.00;;;11.20;;
4585;SDS011;2305;50.118;8.952;2022-08-19T04:09:14;17.40;;;11.77;;
4585;SDS011;2305;50.118;8.952;2022-08-19T04:11:43;17.73;;;11.57;;
4585;SDS011;2305;50.118;8.952;2022-08-19T04:14:17;30.47;;;12.07;;
4585;SDS011;2305;50.118;8.952;2022-08-19T04:16:47;37.40;;;11.97;;
4585;SDS011;2305;50.118;8.952;2022-08-19T04:19:16;73.70;;;12.40;;
4585;SDS011;2305;50.118;8.952;2022-08-19T04:21:47;48.93;;;13.27;;
4585;SDS011;2305;50.118;8.952;2022-08-19T04:24:17;46.80;;;13.00;;
4585;SDS011;2305;50.118;8.952;2022-08-19T04:26:47;52.30;;;12.70;;
4585;SDS011;2305;50.118;8.952;2022-08-19T04:29:17;33.63;;;10.60;;
4585;SDS011;2305;50.118;8.952;2022-08-19T04:31:49;24.73;;;11.20;;
4585;SDS011;2305;50.118;8.952;2022-08-19T04:34:18;19.70;;;11.37;;
4585;SDS011;2305;50.118;8.952;2022-08-19T04:36:49;22.33;;;10.97;;
4585;SDS011;2305;50.118;8.952;2022-08-19T04:39:19;14.37;;;10.20;;
4585;SDS011;2305;50.118;8.952;2022-08-19T04:42:12;16.40;;;11.10;;
4585;SDS011;2305;50.118;8.952;2022-08-19T04:44:58;14.70;;;10.50;;
4585;SDS011;2305;50.118;8.952;2022-08-19T04:47:27;15.20;;;9.93;;
4585;SDS011;2305;50.118;8.952;2022-08-19T04:50:16;12.10;;;10.00;;
4585;SDS011;2305;50.118;8.952;2022-08-19T04:52:45;15.47;;;12.03;;
4585;SDS011;2305;50.118;8.952;2022-08-19T04:55:13;15.03;;;10.70;;
4585;SDS011;2305;50.118;8.952;2022-08-19T04:57:44;12.10;;;9.00;;
4585;SDS011;2305;50.118;8.952;2022-08-19T05:00:13;17.93;;;10.17;;
4585;SDS011;2305;50.118;8.952;2022-08-19T05:02:41;11.70;;;8.87;;
4585;SDS011;2305;50.118;8.952;2022-08-19T05:05:09;13.87;;;9.93;;
4585;SDS011;2305;50.118;8.952;2022-08-19T05:07:40;12.93;;;9.60;;
4585;SDS011;2305;50.118;8.952;2022-08-19T05:10:08;14.40;;;9.50;;
4585;SDS011;2305;50.118;8.952;2022-08-19T05:12:37;11.97;;;9.77;;
4585;SDS011;2305;50.118;8.952;2022-08-19T05:15:09;10.77;;;8.87;;
4585;SDS011;2305;50.118;8.952;2022-08-19T05:17:40;14.70;;;9.73;;
4585;SDS011;2305;50.118;8.952;2022-08-19T05:20:28;9.43;;;8.17;;
4585;SDS011;2305;50.118;8.952;2022-08-19T05:23:14;11.90;;;8.13;;
4585;SDS011;2305;50.118;8.952;2022-08-19T05:25:48;12.23;;;9.07;;
4585;SDS011;2305;50.118;8.952;2022-08-19T05:28:18;26.00;;;9.17;;
4585;SDS011;2305;50.118;8.952;2022-08-19T05:30:47;15.47;;;9.30;;
4585;SDS011;2305;50.118;8.952;2022-08-19T05:33:19;20.50;;;10.00;;
4585;SDS011;2305;50.118;8.952;2022-08-19T05:35:48;11.70;;;8.90;;
4585;SDS011;2305;50.118;8.952;2022-08-19T05:38:17;15.80;;;9.27;;
4585;SDS011;2305;50.118;8.952;2022-08-19T05:40:45;12.23;;;9.00;;
4585;SDS011;2305;50.118;8.952;2022-08-19T05:43:14;11.57;;;8.77;;
4585;SDS011;2305;50.118;8.952;2022-08-19T05:45:43;10.20;;;8.63;;
4585;SDS011;2305;50.118;8.952;2022-08-19T05:48:13;16.40;;;8.40;;
4585;SDS011;2305;50.118;8.952;2022-08-19T05:50:41;12.20;;;8.20;;
4585;SDS011;2305;50.118;8.952;2022-08-19T05:53:10;16.70;;;8.90;;
4585;SDS011;2305;50.118;8.952;2022-08-19T05:55:38;10.57;;;8.97;;
4585;SDS011;2305;50.118;8.952;2022-08-19T05:58:06;10.90;;;8.37;;
4585;SDS011;2305;50.118;8.952;2022-08-19T06:00:34;15.43;;;8.70;;
4585;SDS011;2305;50.118;8.952;2022-08-19T06:03:03;14.57;;;9.47;;
4585;SDS011;2305;50.118;8.952;2022-08-19T06:05:40;17.23;;;8.90;;
4585;SDS011;2305;50.118;8.952;2022-08-19T06:08:18;15.03;;;8.47;;
4585;SDS011;2305;50.118;8.952;2022-08-19T06:11:12;14.10;;;7.50;;
4585;SDS011;2305;50.118;8.952;2022-08-19T06:13:46;12.03;;;8.07;;
4585;SDS011;2305;50.118;8.952;2022-08-19T06:16:27;14.87;;;8.90;;
4585;SDS011;2305;50.118;8.952;2022-08-19T06:19:00;12.13;;;8.53;;
4585;SDS011;2305;50.118;8.952;2022-08-19T06:21:31;8.53;;;7.17;;
4585;SDS011;2305;50.118;8.952;2022-08-19T06:23:59;12.50;;;8.50;;
4585;SDS011;2305;50.118;8.952;2022-08-19T06:26:28;14.07;;;7.23;;
4585;SDS011;2305;50.118;8.952;2022-08-19T06:28:56;12.70;;;8.80;;
4585;SDS011;2305;50.118;8.952;2022-08-19T06:31:25;9.90;;;8.10;;
4585;SDS011;2305;50.118;8.952;2022-08-19T06:34:00;12.30;;;7.50;;
4585;SDS011;2305;50.118;8.952;2022-08-19T06:36:31;13.33;;;7.87;;
4585;SDS011;2305;50.118;8.952;2022-08-19T06:39:02;12.00;;;7.50;;
4585;SDS011;2305;50.118;8.952;2022-08-19T06:41:34;10.87;;;8.27;;
4585;SDS011;2305;50.118;8.952;2022-08-19T06:44:16;12.07;;;7.10;;
4585;SDS011;2305;50.118;8.952;2022-08-19T06:46:45;13.40;;;8.10;;
4585;SDS011;2305;50.118;8.952;2022-08-19T06:49:20;10.67;;;7.77;;
4585;SDS011;2305;50.118;8.952;2022-08-19T06:51:50;10.00;;;7.37;;
4585;SDS011;2305;50.118;8.952;2022-08-19T06:54:18;10.40;;;6.90;;
4585;SDS011;2305;50.118;8.952;2022-08-19T06:56:46;9.70;;;7.70;;
4585;SDS011;2305;50.118;8.952;2022-08-19T06:59:15;10.57;;;8.40;;
4585;SDS011;2305;50.118;8.952;2022-08-19T07:01:46;11.67;;;7.90;;
4585;SDS011;2305;50.118;8.952;2022-08-19T07:04:16;10.70;;;7.10;;
4585;SDS011;2305;50.118;8.952;2022-08-19T07:06:46;14.60;;;7.60;;
4585;SDS011;2305;50.118;8.952;2022-08-19T07:09:22;9.80;;;7.27;;
4585;SDS011;2305;50.118;8.952;2022-08-19T07:11:51;10.03;;;6.93;;
4585;SDS011;2305;50.118;8.952;2022-08-19T07:14:21;18.40;;;7.50;;
4585;SDS011;2305;50.118;8.952;2022-08-19T07:16:54;11.60;;;6.87;;
4585;SDS011;2305;50.118;8.952;2022-08-19T07:19:25;29.13;;;7.20;;
4585;SDS011;2305;50.118;8.952;2022-08-19T07:21:54;11.40;;;6.60;;
4585;SDS011;2305;50.118;8.952;2022-08-19T07:24:25;11.27;;;7.20;;
4585;SDS011;2305;50.118;8.952;2022-08-19T07:27:00;11.27;;;6.87;;
4585;SDS011;2305;50.118;8.952;2022-08-19T07:29:40;12.43;;;6.60;;
4585;SDS011;2305;50.118;8.952;2022-08-19T07:32:09;9.10;;;6.43;;
4585;SDS011;2305;50.118;8.952;2022-08-19T07:34:39;11.13;;;6.73;;
4585;SDS011;2305;50.118;8.952;2022-08-19T07:37:08;8.43;;;6.40;;
4585;SDS011;2305;50.118;8.952;2022-08-19T07:39:38;11.60;;;6.47;;
4585;SDS011;2305;50.118;8.952;2022-08-19T07:42:07;8.00;;;5.33;;
4585;SDS011;2305;50.118;8.952;2022-08-19T07:44:41;10.63;;;5.87;;
4585;SDS011;2305;50.118;8.952;2022-08-19T07:47:18;6.90;;;5.80;;
4585;SDS011;2305;50.118;8.952;2022-08-19T07:50:08;6.87;;;5.60;;
4585;SDS011;2305;50.118;8.952;2022-08-19T07:52:37;9.50;;;5.67;;
4585;SDS011;2305;50.118;8.952;2022-08-19T07:55:09;6.40;;;4.93;;
4585;SDS011;2305;50.118;8.952;2022-08-19T07:57:57;8.20;;;4.70;;
4585;SDS011;2305;50.118;8.952;2022-08-19T08:00:28;11.63;;;4.60;;
4585;SDS011;2305;50.118;8.952;2022-08-19T08:02:56;5.10;;;4.60;;
4585;SDS011;2305;50.118;8.952;2022-08-19T08:05:24;8.40;;;5.23;;
4585;SDS011;2305;50.118;8.952;2022-08-19T08:08:10;8.03;;;5.67;;
4585;SDS011;2305;50.118;8.952;2022-08-19T08:10:59;9.20;;;4.90;;
4585;SDS011;2305;50.118;8.952;2022-08-19T08:13:27;8.93;;;5.57;;
4585;SDS011;2305;50.118;8.952;2022-08-19T08:15:57;11.30;;;5.00;;
4585;SDS011;2305;50.118;8.952;2022-08-19T08:18:25;8.60;;;5.37;;
4585;SDS011;2305;50.118;8.952;2022-08-19T08:20:56;7.87;;;4.73;;
4585;SDS011;2305;50.118;8.952;2022-08-19T08:23:25;6.30;;;4.97;;
4585;SDS011;2305;50.118;8.952;2022-08-19T08:25:55;10.90;;;5.13;;
4585;SDS011;2305;50.118;8.952;2022-08-19T08:28:27;6.17;;;5.10;;
4585;SDS011;2305;50.118;8.952;2022-08-19T08:30:56;7.80;;;5.37;;
4585;SDS011;2305;50.118;8.952;2022-08-19T08:33:25;7.90;;;4.77;;
4585;SDS011;2305;50.118;8.952;2022-08-19T08:36:00;9.63;;;4.60;;
4585;SDS011;2305;50.118;8.952;2022-08-19T08:38:30;7.73;;;5.30;;
4585;SDS011;2305;50.118;8.952;2022-08-19T08:41:09;5.90;;;4.60;;
4585;SDS011;2305;50.118;8.952;2022-08-19T08:43:50;6.10;;;4.70;;
4585;SDS011;2305;50.118;8.952;2022-08-19T08:46:21;36.50;;;5.13;;
4585;SDS011;2305;50.118;8.952;2022-08-19T08:48:59;7.27;;;4.00;;
4585;SDS011;2305;50.118;8.952;2022-08-19T08:51:37;7.00;;;4.33;;
4585;SDS011;2305;50.118;8.952;2022-08-19T08:54:10;6.20;;;4.27;;
4585;SDS011;2305;50.118;8.952;2022-08-19T08:56:40;8.00;;;4.63;;
4585;SDS011;2305;50.118;8.952;2022-08-19T08:59:15;8.30;;;4.37;;
4585;SDS011;2305;50.118;8.952;2022-08-19T09:01:52;4.47;;;3.67;;
4585;SDS011;2305;50.118;8.952;2022-08-19T09:04:20;6.23;;;4.00;;
4585;SDS011;2305;50.118;8.952;2022-08-19T09:06:50;5.67;;;3.30;;
4585;SDS011;2305;50.118;8.952;2022-08-19T09:09:25;5.77;;;3.60;;
4585;SDS011;2305;50.118;8.952;2022-08-19T09:12:00;4.70;;;3.30;;
4585;SDS011;2305;50.118;8.952;2022-08-19T09:14:41;6.87;;;4.13;;
4585;SDS011;2305;50.118;8.952;2022-08-19T09:17:18;5.17;;;3.97;;
4585;SDS011;2305;50.118;8.952;2022-08-19T09:19:55;6.90;;;3.90;;
4585;SDS011;2305;50.118;8.952;2022-08-19T09:22:30;5.20;;;3.70;;
4585;SDS011;2305;50.118;8.952;2022-08-19T09:24:58;4.10;;;3.60;;
4585;SDS011;2305;50.118;8.952;2022-08-19T09:27:27;6.30;;;3.50;;
4585;SDS011;2305;50.118;8.952;2022-08-19T09:30:12;5.30;;;3.00;;
4585;SDS011;2305;50.118;8.952;2022-08-19T09:32:43;5.53;;;3.40;;
4585;SDS011;2305;50.118;8.952;2022-08-19T09:35:13;6.03;;;3.40;;
4585;SDS011;2305;50.118;8.952;2022-08-19T09:37:42;4.77;;;3.40;;
4585;SDS011;2305;50.118;8.952;2022-08-19T09:40:15;8.40;;;4.43;;
4585;SDS011;2305;50.118;8.952;2022-08-19T09:42:46;7.80;;;3.50;;
4585;SDS011;2305;50.118;8.952;2022-08-19T09:45:20;5.53;;;3.43;;
4585;SDS011;2305;50.118;8.952;2022-08-19T09:47:50;7.30;;;3.50;;
4585;SDS011;2305;50.118;8.952;2022-08-19T09:50:21;4.37;;;3.90;;
4585;SDS011;2305;50.118;8.952;2022-08-19T09:52:53;12.70;;;3.90;;
4585;SDS011;2305;50.118;8.952;2022-08-19T09:55:24;4.60;;;3.20;;
4585;SDS011;2305;50.118;8.952;2022-08-19T09:57:58;5.30;;;3.93;;
4585;SDS011;2305;50.118;8.952;2022-08-19T10:00:31;4.13;;;3.33;;
4585;SDS011;2305;50.118;8.952;2022-08-19T10:03:00;6.37;;;4.10;;
4585;SDS011;2305;50.118;8.952;2022-08-19T10:05:29;11.20;;;4.00;;
4585;SDS011;2305;50.118;8.952;2022-08-19T10:08:15;4.70;;;3.60;;
4585;SDS011;2305;50.118;8.952;2022-08-19T10:10:46;5.10;;;4.10;;
4585;SDS011;2305;50.118;8.952;2022-08-19T10:13:15;4.83;;;3.83;;
4585;SDS011;2305;50.118;8.952;2022-08-19T10:15:49;6.57;;;3.80;;
4585;SDS011;2305;50.118;8.952;2022-08-19T10:18:19;8.10;;;4.00;;
4585;SDS011;2305;50.118;8.952;2022-08-19T10:20:49;4.60;;;3.07;;
4585;SDS011;2305;50.118;8.952;2022-08-19T10:23:19;7.90;;;3.57;;
4585;SDS011;2305;50.118;8.952;2022-08-19T10:25:47;4.60;;;3.90;;
4585;SDS011;2305;50.118;8.952;2022-08-19T10:28:16;6.03;;;3.17;;
4585;SDS011;2305;50.118;8.952;2022-08-19T10:30:45;6.27;;;3.97;;
4585;SDS011;2305;50.118;8.952;2022-08-19T10:33:15;10.60;;;4.10;;
4585;SDS011;2305;50.118;8.952;2022-08-19T10:36:04;5.50;;;3.73;;
4585;SDS011;2305;50.118;8.952;2022-08-19T10:38:34;5.33;;;3.90;;
4585;SDS011;2305;50.118;8.952;2022-08-19T10:41:06;8.63;;;3.90;;
4585;SDS011;2305;50.118;8.952;2022-08-19T10:43:35;7.77;;;4.20;;
4585;SDS011;2305;50.118;8.952;2022-08-19T10:46:05;5.20;;;3.03;;
4585;SDS011;2305;50.118;8.952;2022-08-19T10:48:44;5.90;;;3.67;;
4585;SDS011;2305;50.118;8.952;2022-08-19T10:51:12;4.73;;;3.80;;
4585;SDS011;2305;50.118;8.952;2022-08-19T10:53:59;3.80;;;3.33;;
4585;SDS011;2305;50.118;8.952;2022-08-19T10:56:34;4.60;;;3.80;;
4585;SDS011;2305;50.118;8.952;2022-08-19T10:59:20;4.67;;;3.80;;
4585;SDS011;2305;50.118;8.952;2022-08-19T11:01:52;7.50;;;3.67;;
4585;SDS011;2305;50.118;8.952;2022-08-19T11:04:24;5.57;;;3.70;;
4585;SDS011;2305;50.118;8.952;2022-08-19T11:06:55;4.60;;;3.83;;
4585;SDS011;2305;50.118;8.952;2022-08-19T11:09:24;5.40;;;3.57;;
4585;SDS011;2305;50.118;8.952;2022-08-19T11:11:59;9.67;;;3.60;;
4585;SDS011;2305;50.118;8.952;2022-08-19T11:14:30;4.40;;;3.40;;
4585;SDS011;2305;50.118;8.952;2022-08-19T11:17:00;4.20;;;3.40;;
4585;SDS011;2305;50.118;8.952;2022-08-19T11:19:32;6.70;;;3.33;;
4585;SDS011;2305;50.118;8.952;2022-08-19T11:22:00;4.07;;;3.60;;
4585;SDS011;2305;50.118;8.952;2022-08-19T11:24:29;5.83;;;3.23;;
4585;SDS011;2305;50.118;8.952;2022-08-19T11:27:02;9.50;;;3.20;;
4585;SDS011;2305;50.118;8.952;2022-08-19T11:29:33;6.10;;;3.50;;
4585;SDS011;2305;50.118;8.952;2022-08-19T11:32:03;7.57;;;3.40;;
4585;SDS011;2305;50.118;8.952;2022-08-19T11:34:33;6.80;;;3.60;;
4585;SDS011;2305;50.118;8.952;2022-08-19T11:37:02;4.10;;;3.50;;
4585;SDS011;2305;50.118;8.952;2022-08-19T11:39:32;4.43;;;3.30;;
4585;SDS011;2305;50.118;8.952;2022-08-19T11:42:02;4.13;;;3.37;;
4585;SDS011;2305;50.118;8.952;2022-08-19T11:44:53;3.23;;;2.93;;
4585;SDS011;2305;50.118;8.952;2022-08-19T11:47:22;3.00;;;2.70;;
4585;SDS011;2305;50.118;8.952;2022-08-19T11:49:51;4.60;;;3.33;;
4585;SDS011;2305;50.118;8.952;2022-08-19T11:52:19;3.40;;;3.10;;
4585;SDS011;2305;50.118;8.952;2022-08-19T11:54:47;4.37;;;2.90;;
4585;SDS011;2305;50.118;8.952;2022-08-19T11:57:15;5.50;;;3.03;;
4585;SDS011;2305;50.118;8.952;2022-08-19T11:59:47;3.77;;;3.47;;
4585;SDS011;2305;50.118;8.952;2022-08-19T12:02:17;3.93;;;2.87;;
4585;SDS011;2305;50.118;8.952;2022-08-19T12:04:45;3.77;;;3.47;;
4585;SDS011;2305;50.118;8.952;2022-08-19T12:07:15;5.90;;;3.17;;
4585;SDS011;2305;50.118;8.952;2022-08-19T12:09:43;4.20;;;3.00;;
4585;SDS011;2305;50.118;8.952;2022-08-19T12:12:14;4.57;;;3.03;;
4585;SDS011;2305;50.118;8.952;2022-08-19T12:14:42;4.63;;;3.10;;
4585;SDS011;2305;50.118;8.952;2022-08-19T12:17:11;5.50;;;3.30;;
4585;SDS011;2305;50.118;8.952;2022-08-19T12:19:40;3.80;;;3.40;;
4585;SDS011;2305;50.118;8.952;2022-08-19T12:22:08;5.80;;;3.40;;
4585;SDS011;2305;50.118;8.952;2022-08-19T12:24:37;5.77;;;2.97;;
4585;SDS011;2305;50.118;8.952;2022-08-19T12:27:05;3.20;;;2.80;;
4585;SDS011;2305;50.118;8.952;2022-08-19T12:29:38;6.53;;;3.03;;
4585;SDS011;2305;50.118;8.952;2022-08-19T12:32:07;3.70;;;3.20;;
4585;SDS011;2305;50.118;8.952;2022-08-19T12:34:40;3.83;;;2.97;;
4585;SDS011;2305;50.118;8.952;2022-08-19T12:37:08;4.43;;;3.10;;
4585;SDS011;2305;50.118;8.952;2022-08-19T12:39:39;5.47;;;3.17;;
4585;SDS011;2305;50.118;8.952;2022-08-19T12:42:09;2.80;;;2.43;;
4585;SDS011;2305;50.118;8.952;2022-08-19T12:44:38;3.83;;;2.97;;
4585;SDS011;2305;50.118;8.952;2022-08-19T12:47:08;3.93;;;3.10;;
4585;SDS011;2305;50.118;8.952;2022-08-19T12:49:38;3.90;;;3.43;;
4585;SDS011;2305;50.118;8.952;2022-08-19T12:52:21;4.13;;;3.17;;
4585;SDS011;2305;50.118;8.952;2022-08-19T12:54:51;2.83;;;2.53;;
4585;SDS011;2305;50.118;8.952;2022-08-19T12:57:21;4.63;;;3.30;;
4585;SDS011;2305;50.118;8.952;2022-08-19T12:59:59;4.90;;;3.20;;
4585;SDS011;2305;50.118;8.952;2022-08-19T13:02:33;7.10;;;4.20;;
4585;SDS011;2305;50.118;8.952;2022-08-19T13:05:05;6.67;;;3.40;;
4585;SDS011;2305;50.118;8.952;2022-08-19T13:07:36;5.03;;;4.13;;
4585;SDS011;2305;50.118;8.952;2022-08-19T13:10:08;4.10;;;3.70;;
4585;SDS011;2305;50.118;8.952;2022-08-19T13:12:39;4.83;;;4.00;;
4585;SDS011;2305;50.118;8.952;2022-08-19T13:15:08;4.97;;;3.47;;
4585;SDS011;2305;50.118;8.952;2022-08-19T13:17:38;7.00;;;4.17;;
4585;SDS011;2305;50.118;8.952;2022-08-19T13:20:07;4.40;;;4.00;;
4585;SDS011;2305;50.118;8.952;2022-08-19T13:22:37;4.90;;;4.40;;
4585;SDS011;2305;50.118;8.952;2022-08-19T13:25:07;18.70;;;4.37;;
4585;SDS011;2305;50.118;8.952;2022-08-19T13:27:40;5.70;;;5.10;;
4585;SDS011;2305;50.118;8.952;2022-08-19T13:30:09;9.97;;;4.70;;
4585;SDS011;2305;50.118;8.952;2022-08-19T13:32:56;5.80;;;5.30;;
4585;SDS011;2305;50.118;8.952;2022-08-19T13:35:43;6.50;;;5.20;;
4585;SDS011;2305;50.118;8.952;2022-08-19T13:38:17;6.83;;;4.20;;
4585;SDS011;2305;50.118;8.952;2022-08-19T13:40:48;6.33;;;4.77;;
4585;SDS011;2305;50.118;8.952;2022-08-19T13:43:18;7.17;;;4.60;;
4585;SDS011;2305;50.118;8.952;2022-08-19T13:45:50;5.50;;;4.50;;
4585;SDS011;2305;50.118;8.952;2022-08-19T13:48:23;7.33;;;4.37;;
4585;SDS011;2305;50.118;8.952;2022-08-19T13:50:55;7.97;;;4.67;;
4585;SDS011;2305;50.118;8.952;2022-08-19T13:53:23;6.30;;;5.20;;
4585;SDS011;2305;50.118;8.952;2022-08-19T13:55:52;5.30;;;4.90;;
4585;SDS011;2305;50.118;8.952;2022-08-19T13:58:21;4.80;;;4.27;;
4585;SDS011;2305;50.118;8.952;2022-08-19T14:00:49;5.83;;;4.60;;
4585;SDS011;2305;50.118;8.952;2022-08-19T14:03:17;9.43;;;5.53;;
4585;SDS011;2305;50.118;8.952;2022-08-19T14:05:45;7.63;;;5.47;;
4585;SDS011;2305;50.118;8.952;2022-08-19T14:08:14;7.33;;;4.63;;
4585;SDS011;2305;50.118;8.952;2022-08-19T14:10:42;5.07;;;4.57;;
4585;SDS011;2305;50.118;8.952;2022-08-19T14:13:14;6.07;;;4.63;;
4585;SDS011;2305;50.118;8.952;2022-08-19T14:15:44;5.60;;;5.10;;
4585;SDS011;2305;50.118;8.952;2022-08-19T14:18:13;6.57;;;4.97;;
4585;SDS011;2305;50.118;8.952;2022-08-19T14:20:42;8.53;;;5.20;;
4585;SDS011;2305;50.118;8.952;2022-08-19T14:23:10;5.47;;;4.97;;
4585;SDS011;2305;50.118;8.952;2022-08-19T14:25:39;5.97;;;5.47;;
4585;SDS011;2305;50.118;8.952;2022-08-19T14:28:08;11.70;;;5.10;;
4585;SDS011;2305;50.118;8.952;2022-08-19T14:30:37;9.80;;;5.30;;
4585;SDS011;2305;50.118;8.952;2022-08-19T14:33:05;5.90;;;5.30;;
4585;SDS011;2305;50.118;8.952;2022-08-19T14:35:35;6.73;;;5.67;;
4585;SDS011;2305;50.118;8.952;2022-08-19T14:38:04;8.60;;;5.37;;
4585;SDS011;2305;50.118;8.952;2022-08-19T14:40:33;5.43;;;4.93;;
4585;SDS011;2305;50.118;8.952;2022-08-19T14:43:02;7.40;;;5.47;;
4585;SDS011;2305;50.118;8.952;2022-08-19T14:45:32;5.60;;;5.00;;
4585;SDS011;2305;50.118;8.952;2022-08-19T14:48:04;5.00;;;4.50;;
4585;SDS011;2305;50.118;8.952;2022-08-19T14:50:37;9.37;;;5.30;;
4585;SDS011;2305;50.118;8.952;2022-08-19T14:53:06;6.00;;;5.47;;
4585;SDS011;2305;50.118;8.952;2022-08-19T14:55:40;5.90;;;5.30;;
4585;SDS011;2305;50.118;8.952;2022-08-19T14:58:09;7.00;;;5.10;;
4585;SDS011;2305;50.118;8.952;2022-08-19T15:00:57;5.30;;;4.90;;
4585;SDS011;2305;50.118;8.952;2022-08-19T15:03:28;6.07;;;5.47;;
4585;SDS011;2305;50.118;8.952;2022-08-19T15:05:58;8.80;;;5.30;;
4585;SDS011;2305;50.118;8.952;2022-08-19T15:08:28;6.03;;;5.43;;
4585;SDS011;2305;50.118;8.952;2022-08-19T15:10:58;8.90;;;5.30;;
4585;SDS011;2305;50.118;8.952;2022-08-19T15:13:28;5.17;;;4.67;;
4585;SDS011;2305;50.118;8.952;2022-08-19T15:15:57;5.67;;;5.17;;
4585;SDS011;2305;50.118;8.952;2022-08-19T15:18:25;6.10;;;5.43;;
4585;SDS011;2305;50.118;8.952;2022-08-19T15:20:54;6.87;;;5.47;;
4585;SDS011;2305;50.118;8.952;2022-08-19T15:23:23;6.10;;;5.50;;
4585;SDS011;2305;50.118;8.952;2022-08-19T15:25:51;5.83;;;5.33;;
4585;SDS011;2305;50.118;8.952;2022-08-19T15:28:22;5.20;;;4.70;;